KEOK/EOK METAR and TAF weather

Enter ICAO airport designator
Station Type Date Time Source
KEOK METAR 2021/05/11 21:35 UTC NOAA

KEOK 112135Z AUTO VRB06G14KT 10SM CLR 15/01 A3029 RMK AO2


Station Type Date Time Source
KEOK Decoded METAR 2021/05/11 21:35 UTC NOAA

Keokuk Municipal, IA, United States (KEOK) 40-28N 091-26W
May 11, 2021 - 05:35 PM EDT / 2021.05.11 2135 UTC
Wind: Variable at 7 MPH (6 KT) gusting to 16 MPH (14 KT):0
Visibility: 10 mile(s):0
Sky conditions: clear
Temperature: 59 F (15 C)
Dew Point: 33 F (1 C)
Relative Humidity: 38%
Pressure (altimeter): 30.29 in. Hg (1025 hPa)
ob: KEOK 112135Z AUTO VRB06G14KT 10SM CLR 15/01 A3029 RMK AO2
cycle: 21

Station Type Date Time Source
KEOK TAF UTC NOAA

Error!

Example: see airport list